Airfield :
LOGIN :

Register | Disclaimer

   EN    FR    IT 

 










Legend :    VFR   Marginal VFR   IFR   Intensive IFR   Very Intensive IFR
Visi :
Ceiling :
>= 8 km
>= 3000ft
5 to 8 km
1000 to 3000 ft
1500m to 5 km
500 to 1000 ft
800 to 1500m
200 to 500 ft
< 800m
< 200 ft
Symbols :   Thunderstorms  Fog  Heavy snow  Heavy precipitations  Wind > 20 kt
SIGMETs :     Misc.  Thunderstorms  Icing  Turbulence  Mountain Waves  Volcanic Ashes






- Airport Elevation : 640 ft
- IATA code : AOC


EDAC - Altenburg-Nobitz

CURRENT METAR :
  • 221250Z 32007KT 270V030 CAVOK 20/10 Q1016

EXPIRED METARs :
  • 221220Z 31005KT 250V360 CAVOK 19/07 Q1016
  • 221150Z 32007KT 290V360 9999 FEW048 SCT055 18/07 Q1016
  • 221120Z 33008KT 300V360 9999 SCT048 18/07 Q1016
  • 221050Z 32005KT 250V010 9999 FEW040 18/07 Q1016
  • 221020Z 29006KT 220V340 9999 SCT040 SCT049 17/09 Q1017

TAF TAF EDAC
Valid from the 22 at 12:00 until the 22 at 21:00 UTC


221100Z 2212/2221 32005KT 9999 SCT045
BECMG 2215/2218 04004KT



MET'MAP, your aeronautical weather chart ! - Copyright ORBIFLY December 2007 - Disclaimer

ORBIFLY MET'MAP TEAM :

Programming & Development : Alexandra Zaïnal
Original concept : Baudouin d'Aumeries
Technical & hardware support : Manuel Goepfert
Assistance : Marc-Olivier Méhu

Contact : metmap@orbifly.com




SOURCES & CREDITS :

   NOAA